Time;durP1;ratioP1;P1;durP2;ratioP2;P2;SDS_P1;SDS_P2;PMS_P1;PMS_P2;Temp;Humidity;BMP_temperature;BMP_pressure;BME280_temperature;BME280_humidity;BME280_pressure;Samples;Min_cycle;Max_cycle;Signal;HPM_P1;HPM_P2
2022/07/23 00:01:48;;;;;;;2.33;1.80;;;23.30;95.60;;;;;;5029900;28;45315;-72
2022/07/23 00:04:15;;;;;;;1.70;1.60;;;23.30;95.70;;;;;;5043537;27;47821;-73
2022/07/23 00:06:42;;;;;;;1.80;1.60;;;23.30;95.70;;;;;;5030667;27;45668;-72
2022/07/23 00:09:09;;;;;;;2.47;1.85;;;23.30;95.70;;;;;;5030918;28;45447;-71
2022/07/23 00:11:37;;;;;;;2.42;1.77;;;23.30;95.70;;;;;;5032942;27;45551;-71
2022/07/23 00:14:06;;;;;;;3.20;1.65;;;23.30;95.70;;;;;;5054013;27;46604;-69
2022/07/23 00:16:32;;;;;;;1.95;1.75;;;23.30;95.70;;;;;;5053717;27;45287;-72
2022/07/23 00:19:01;;;;;;;2.63;1.80;;;23.30;96.00;;;;;;5030644;27;45518;-73
2022/07/23 00:21:27;;;;;;;3.13;1.90;;;23.30;95.70;;;;;;5027397;27;45457;-71
2022/07/23 00:23:54;;;;;;;1.85;1.60;;;23.30;95.80;;;;;;5037139;27;46588;-73
2022/07/23 00:26:21;;;;;;;2.05;1.67;;;23.30;95.70;;;;;;5042065;27;45748;-73
2022/07/23 00:28:49;;;;;;;2.65;1.80;;;23.30;95.90;;;;;;5029777;28;45399;-72
2022/07/23 00:31:16;;;;;;;2.75;1.60;;;23.30;95.70;;;;;;5039265;27;45392;-72
2022/07/23 00:33:43;;;;;;;2.03;1.63;;;23.30;95.70;;;;;;5032654;27;48872;-72
2022/07/23 00:36:10;;;;;;;3.70;2.20;;;23.30;95.70;;;;;;5043316;27;45320;-71
2022/07/23 00:38:36;;;;;;;2.75;2.05;;;23.30;95.70;;;;;;5034438;27;45315;-72
2022/07/23 00:41:03;;;;;;;2.10;1.75;;;23.30;95.70;;;;;;5037308;27;45715;-73
2022/07/23 00:43:30;;;;;;;4.20;2.17;;;23.30;95.80;;;;;;5032157;27;46221;-72
2022/07/23 00:45:58;;;;;;;2.80;1.92;;;23.30;95.70;;;;;;5036801;27;45268;-72
2022/07/23 00:48:25;;;;;;;2.25;1.90;;;23.30;95.80;;;;;;5033670;28;45380;-72
2022/07/23 00:50:52;;;;;;;3.75;2.15;;;23.30;95.80;;;;;;5038416;27;45384;-72
2022/07/23 00:53:20;;;;;;;3.55;2.13;;;23.30;95.90;;;;;;5029419;28;45387;-73
2022/07/23 00:55:48;;;;;;;3.22;2.00;;;23.30;95.80;;;;;;5030615;28;46002;-72
2022/07/23 00:58:16;;;;;;;3.08;2.20;;;23.30;95.90;;;;;;5030059;27;45197;-72
2022/07/23 01:00:43;;;;;;;3.38;2.30;;;23.30;95.90;;;;;;5032968;27;45426;-73
2022/07/23 01:03:11;;;;;;;2.53;2.17;;;23.30;95.90;;;;;;5030437;28;46223;-72
2022/07/23 01:05:38;;;;;;;3.13;2.13;;;23.30;96.10;;;;;;5030070;28;45401;-73
2022/07/23 01:08:07;;;;;;;3.00;2.13;;;23.30;97.00;;;;;;5031672;28;45341;-73
2022/07/23 01:10:34;;;;;;;3.63;2.30;;;23.20;96.30;;;;;;5033908;27;45531;-72
2022/07/23 01:13:02;;;;;;;3.28;2.45;;;23.20;96.30;;;;;;5032343;28;47013;-72
2022/07/23 01:15:30;;;;;;;4.93;2.10;;;23.20;96.10;;;;;;5029235;28;45334;-72
2022/07/23 01:17:56;;;;;;;3.13;2.50;;;23.30;96.10;;;;;;5031098;27;45441;-73
2022/07/23 01:20:25;;;;;;;3.22;2.10;;;23.30;96.10;;;;;;5033326;28;45505;-72
2022/07/23 01:22:53;;;;;;;2.53;2.30;;;23.30;96.20;;;;;;5034673;28;46497;-72
2022/07/23 01:25:21;;;;;;;4.25;2.78;;;23.30;96.00;;;;;;5041766;27;45267;-72
2022/07/23 01:27:48;;;;;;;3.42;2.53;;;23.30;96.00;;;;;;5039131;27;45367;-72
2022/07/23 01:30:15;;;;;;;2.97;2.50;;;23.30;96.00;;;;;;5036154;28;45527;-72
2022/07/23 01:32:41;;;;;;;3.05;2.30;;;23.30;95.90;;;;;;5037960;28;45458;-72
2022/07/23 01:35:09;;;;;;;3.47;3.10;;;23.30;95.90;;;;;;5034477;28;45414;-71
2022/07/23 01:37:36;;;;;;;3.92;2.42;;;23.30;95.90;;;;;;5032422;27;45426;-72
2022/07/23 01:40:06;;;;;;;4.85;2.72;;;23.30;95.80;;;;;;5030931;28;45330;-73
2022/07/23 01:42:33;;;;;;;3.17;2.58;;;23.30;95.80;;;;;;5028164;28;45482;-72
2022/07/23 01:45:00;;;;;;;3.60;2.65;;;23.30;95.70;;;;;;5031010;28;45395;-74
2022/07/23 01:47:28;;;;;;;3.50;2.70;;;23.30;95.80;;;;;;5029790;28;45517;-72
2022/07/23 01:49:55;;;;;;;5.13;3.10;;;23.30;95.80;;;;;;5040969;27;45404;-72
2022/07/23 01:52:22;;;;;;;4.18;2.92;;;23.30;95.80;;;;;;5029773;28;46266;-72
2022/07/23 01:54:49;;;;;;;3.65;2.67;;;23.30;95.70;;;;;;5030515;28;45338;-72
2022/07/23 01:57:17;;;;;;;3.97;2.80;;;23.30;95.80;;;;;;5027739;27;45356;-72
2022/07/23 01:59:44;;;;;;;3.25;2.38;;;23.30;95.90;;;;;;5019908;28;45489;-72
2022/07/23 02:02:11;;;;;;;3.72;2.95;;;23.30;95.80;;;;;;5020641;27;46606;-72
2022/07/23 02:04:37;;;;;;;4.05;2.63;;;23.20;95.90;;;;;;5019626;28;45363;-72
2022/07/23 02:07:05;;;;;;;4.38;2.60;;;23.20;95.90;;;;;;5020294;28;45346;-72
2022/07/23 02:09:31;;;;;;;3.40;2.85;;;23.20;95.80;;;;;;5039056;27;45439;-72
2022/07/23 02:11:58;;;;;;;4.30;3.10;;;23.20;96.10;;;;;;5035732;28;46585;-72
2022/07/23 02:14:27;;;;;;;3.80;3.20;;;23.20;95.80;;;;;;5023307;28;45443;-72
2022/07/23 02:16:54;;;;;;;4.25;2.92;;;23.20;95.60;;;;;;5038240;28;45378;-72
2022/07/23 02:19:20;;;;;;;4.57;3.10;;;23.20;95.40;;;;;;5036634;28;45521;-72
2022/07/23 02:21:47;;;;;;;3.97;3.05;;;23.20;95.40;;;;;;5041765;27;46562;-73
2022/07/23 02:24:14;;;;;;;3.45;2.80;;;23.20;95.30;;;;;;5033582;28;45364;-72
2022/07/23 02:26:42;;;;;;;3.28;2.72;;;23.20;95.40;;;;;;5037767;28;45395;-72
2022/07/23 02:29:09;;;;;;;3.30;2.60;;;23.20;95.20;;;;;;5036690;28;45404;-72
2022/07/23 02:31:37;;;;;;;3.20;2.80;;;23.20;95.20;;;;;;5040042;27;46650;-72
2022/07/23 02:34:04;;;;;;;2.70;2.50;;;23.20;95.20;;;;;;5031123;28;45274;-72
2022/07/23 02:36:31;;;;;;;4.10;2.72;;;23.20;95.20;;;;;;5034205;28;45338;-72
2022/07/23 02:38:58;;;;;;;3.17;2.63;;;23.20;95.60;;;;;;5043907;27;45702;-72
2022/07/23 02:41:25;;;;;;;3.63;2.65;;;23.20;95.20;;;;;;5036909;28;46677;-72
2022/07/23 02:43:51;;;;;;;2.80;2.38;;;23.20;95.70;;;;;;5037264;27;45630;-72
2022/07/23 02:46:18;;;;;;;2.80;2.30;;;23.20;95.20;;;;;;5037997;28;45517;-72
2022/07/23 02:48:46;;;;;;;2.35;2.13;;;23.20;95.20;;;;;;5040214;27;45280;-73
2022/07/23 02:51:13;;;;;;;2.08;1.88;;;23.20;95.20;;;;;;5072000;27;45455;-72
2022/07/23 02:53:40;;;;;;;2.40;2.20;;;23.20;95.20;;;;;;5039330;28;45536;-72
2022/07/23 02:56:07;;;;;;;2.55;2.00;;;23.10;95.00;;;;;;5072737;27;45600;-72
2022/07/23 02:58:34;;;;;;;2.10;1.90;;;23.20;95.10;;;;;;5032599;27;45482;-72
2022/07/23 03:01:00;;;;;;;2.60;2.28;;;23.20;95.00;;;;;;5069003;27;45333;-72
2022/07/23 03:03:27;;;;;;;2.50;1.98;;;23.20;95.20;;;;;;5029507;27;45408;-72
2022/07/23 03:05:55;;;;;;;2.10;1.80;;;23.10;95.20;;;;;;5044360;27;45396;-73
2022/07/23 03:08:22;;;;;;;2.10;1.90;;;23.10;95.20;;;;;;5026804;27;45238;-72
2022/07/23 03:10:49;;;;;;;2.40;1.90;;;23.10;94.90;;;;;;5019574;28;46414;-72
2022/07/23 03:13:16;;;;;;;1.70;1.60;;;23.10;94.90;;;;;;5019410;28;45452;-73
2022/07/23 03:15:43;;;;;;;1.85;1.55;;;23.10;94.90;;;;;;5019191;28;45270;-72
2022/07/23 03:18:09;;;;;;;1.75;1.65;;;23.10;94.80;;;;;;5031857;28;45283;-72
2022/07/23 03:20:36;;;;;;;1.70;1.60;;;23.10;94.60;;;;;;5038114;27;47520;-73
2022/07/23 03:23:04;;;;;;;1.70;1.60;;;23.10;94.90;;;;;;5033928;28;45934;-72
2022/07/23 03:25:31;;;;;;;1.88;1.50;;;23.10;94.90;;;;;;5019357;28;45324;-72
2022/07/23 03:27:58;;;;;;;1.73;1.58;;;23.10;94.40;;;;;;5019802;28;45308;-72
2022/07/23 03:30:25;;;;;;;2.20;1.70;;;23.10;94.90;;;;;;5017690;28;47521;-72
2022/07/23 03:32:51;;;;;;;1.65;1.52;;;23.10;94.40;;;;;;5019463;28;45294;-73
2022/07/23 03:35:18;;;;;;;1.70;1.60;;;23.10;94.60;;;;;;5032633;27;45490;-73
2022/07/23 03:37:45;;;;;;;2.78;1.67;;;23.10;94.40;;;;;;5040228;27;45533;-73
2022/07/23 03:40:13;;;;;;;2.13;1.58;;;23.10;94.40;;;;;;5036888;27;45414;-73
2022/07/23 03:42:42;;;;;;;1.90;1.50;;;23.10;94.40;;;;;;5037578;28;45312;-72
2022/07/23 03:45:09;;;;;;;1.60;1.50;;;23.10;94.10;;;;;;5036260;28;45338;-73
2022/07/23 03:47:36;;;;;;;2.10;1.65;;;23.10;94.00;;;;;;5038419;27;45451;-73
2022/07/23 03:50:03;;;;;;;2.55;1.98;;;23.10;94.10;;;;;;5037953;27;45348;-73
2022/07/23 03:52:30;;;;;;;1.40;1.30;;;23.10;93.90;;;;;;5030050;28;45424;-72
2022/07/23 03:54:57;;;;;;;3.13;1.70;;;23.10;93.70;;;;;;5037420;27;45404;-73
2022/07/23 03:57:25;;;;;;;1.80;1.60;;;23.10;93.60;;;;;;5024242;28;45460;-73
2022/07/23 03:59:52;;;;;;;1.52;1.42;;;23.10;94.00;;;;;;5040763;28;45399;-72
2022/07/23 04:02:18;;;;;;;1.50;1.30;;;23.10;93.60;;;;;;5023694;28;45353;-73
2022/07/23 04:04:46;;;;;;;0.93;0.93;;;23.10;93.40;;;;;;5021833;28;45291;-73
2022/07/23 04:07:13;;;;;;;1.50;1.40;;;23.10;93.50;;;;;;5023593;28;45261;-72
2022/07/23 04:09:41;;;;;;;1.40;1.30;;;23.10;93.30;;;;;;5060452;27;47268;-72
2022/07/23 04:12:08;;;;;;;1.90;1.50;;;23.10;93.50;;;;;;5033006;28;45839;-73
2022/07/23 04:14:37;;;;;;;1.30;1.20;;;23.00;93.80;;;;;;5030495;28;45300;-72
2022/07/23 04:17:04;;;;;;;0.98;0.88;;;23.00;93.50;;;;;;5038375;28;45436;-72
2022/07/23 04:19:31;;;;;;;1.52;1.17;;;23.00;93.60;;;;;;5021582;28;47027;-72
2022/07/23 04:21:57;;;;;;;1.40;1.30;;;23.00;93.50;;;;;;5021715;28;45377;-74
2022/07/23 04:24:24;;;;;;;1.30;1.20;;;23.00;93.50;;;;;;5022040;28;45429;-72
2022/07/23 04:26:51;;;;;;;1.83;1.60;;;23.00;93.40;;;;;;5039999;27;45366;-72
2022/07/23 04:29:18;;;;;;;1.50;1.40;;;23.00;93.60;;;;;;5036783;27;46895;-73
2022/07/23 04:31:46;;;;;;;1.55;1.45;;;23.00;93.20;;;;;;5032509;28;45241;-72
2022/07/23 04:34:13;;;;;;;2.10;1.67;;;23.00;93.10;;;;;;5038666;27;45482;-72
2022/07/23 04:36:39;;;;;;;1.45;1.35;;;23.00;93.10;;;;;;5039936;28;45415;-73
2022/07/23 04:39:06;;;;;;;1.20;1.10;;;23.00;93.00;;;;;;5039101;28;46286;-73
2022/07/23 04:41:34;;;;;;;1.30;1.10;;;23.00;93.00;;;;;;5037180;27;46639;-73
2022/07/23 04:44:00;;;;;;;3.58;1.00;;;23.00;92.90;;;;;;5032643;28;45246;-73
2022/07/23 04:46:27;;;;;;;1.40;1.30;;;23.00;93.00;;;;;;5039298;27;45519;-72
2022/07/23 04:48:55;;;;;;;1.20;1.10;;;23.00;92.80;;;;;;5040091;27;46699;-73
2022/07/23 04:51:22;;;;;;;1.48;1.25;;;23.00;92.90;;;;;;5034751;27;45222;-72
2022/07/23 04:53:49;;;;;;;1.20;1.10;;;23.00;92.80;;;;;;5034558;28;45441;-72
2022/07/23 04:56:16;;;;;;;2.72;1.50;;;23.00;92.90;;;;;;5034525;27;45359;-73
2022/07/23 04:58:43;;;;;;;1.85;1.40;;;23.00;92.70;;;;;;5039596;28;47370;-72
2022/07/23 05:01:10;;;;;;;1.30;1.10;;;23.00;92.70;;;;;;5039073;27;45985;-72
2022/07/23 05:03:37;;;;;;;1.23;1.13;;;23.00;92.60;;;;;;5042377;27;45370;-73
2022/07/23 05:06:05;;;;;;;1.30;1.20;;;23.00;92.60;;;;;;5031733;28;45532;-74
2022/07/23 05:08:32;;;;;;;1.77;1.40;;;23.00;92.60;;;;;;5039872;28;48459;-72
2022/07/23 05:10:58;;;;;;;1.92;1.30;;;23.00;92.60;;;;;;5033975;28;46299;-73
2022/07/23 05:13:25;;;;;;;1.23;1.13;;;23.00;92.70;;;;;;5021228;28;45337;-73
2022/07/23 05:15:52;;;;;;;1.73;1.20;;;23.00;92.70;;;;;;5023291;28;45263;-73
2022/07/23 05:18:19;;;;;;;1.30;1.20;;;23.00;92.80;;;;;;5021663;27;47766;-73
2022/07/23 05:20:46;;;;;;;1.50;1.40;;;23.00;92.80;;;;;;5021611;28;45357;-73
2022/07/23 05:23:14;;;;;;;2.17;1.30;;;23.00;92.70;;;;;;5020843;28;45400;-73
2022/07/23 05:25:41;;;;;;;1.92;1.30;;;23.00;92.70;;;;;;5020949;28;45283;-73
2022/07/23 05:28:08;;;;;;;1.50;1.40;;;23.00;92.70;;;;;;5020778;28;47254;-73
2022/07/23 05:30:35;;;;;;;1.40;1.30;;;23.00;92.70;;;;;;5020133;27;45367;-73
2022/07/23 05:33:02;;;;;;;1.83;1.35;;;23.00;92.60;;;;;;5023910;28;45476;-74
2022/07/23 05:35:28;;;;;;;1.40;1.30;;;23.00;92.50;;;;;;5031788;27;45415;-73
2022/07/23 05:37:55;;;;;;;1.20;1.10;;;23.00;92.50;;;;;;5048377;28;47266;-74
2022/07/23 05:40:23;;;;;;;1.42;1.33;;;23.00;92.50;;;;;;5051045;27;45793;-73
2022/07/23 05:42:50;;;;;;;1.45;1.35;;;23.00;92.60;;;;;;5040817;27;45549;-74
2022/07/23 05:45:17;;;;;;;1.60;1.48;;;23.00;92.50;;;;;;5037866;28;45287;-73
2022/07/23 05:47:45;;;;;;;1.58;1.23;;;23.00;92.50;;;;;;5039972;28;47499;-74
2022/07/23 05:50:13;;;;;;;1.20;1.10;;;23.10;92.50;;;;;;5031141;28;45536;-73
2022/07/23 05:52:40;;;;;;;1.40;1.30;;;23.10;92.60;;;;;;5040262;28;45522;-74
2022/07/23 05:55:08;;;;;;;1.25;1.13;;;23.10;92.60;;;;;;5038473;27;45266;-74
2022/07/23 05:57:36;;;;;;;1.25;1.00;;;23.10;92.60;;;;;;5032309;28;47781;-73
2022/07/23 06:00:05;;;;;;;1.08;0.98;;;23.10;92.60;;;;;;5040085;27;45326;-73
2022/07/23 06:02:31;;;;;;;1.40;1.30;;;23.10;92.60;;;;;;5032007;28;45390;-73
2022/07/23 06:04:58;;;;;;;1.20;1.10;;;23.10;92.70;;;;;;5039187;28;45539;-74
2022/07/23 06:07:25;;;;;;;1.60;1.25;;;23.10;92.80;;;;;;5033827;28;46091;-74
2022/07/23 06:09:52;;;;;;;1.73;1.20;;;23.10;92.80;;;;;;5029159;27;45298;-73
2022/07/23 06:12:19;;;;;;;1.30;1.20;;;23.10;92.90;;;;;;5039351;28;45515;-74
2022/07/23 06:14:49;;;;;;;1.48;1.20;;;23.10;92.90;;;;;;5039606;27;45493;-74
2022/07/23 06:17:16;;;;;;;1.10;1.00;;;23.10;92.90;;;;;;5039634;27;48317;-74
2022/07/23 06:19:44;;;;;;;2.10;1.40;;;23.10;92.90;;;;;;5033027;28;45748;-74
2022/07/23 06:22:11;;;;;;;1.67;1.58;;;23.10;93.00;;;;;;5037268;27;45432;-75
2022/07/23 06:24:38;;;;;;;1.58;1.13;;;23.10;92.90;;;;;;5036063;27;45314;-74
2022/07/23 06:27:04;;;;;;;1.15;1.05;;;23.10;93.00;;;;;;5036652;28;48566;-74
2022/07/23 06:29:31;;;;;;;1.33;1.23;;;23.10;93.00;;;;;;5032579;27;45345;-74
2022/07/23 06:32:00;;;;;;;2.00;1.52;;;23.10;93.00;;;;;;5028502;27;45394;-73
2022/07/23 06:34:27;;;;;;;1.95;1.23;;;23.10;92.90;;;;;;5041687;27;45397;-73
2022/07/23 06:36:54;;;;;;;1.98;1.55;;;23.10;93.00;;;;;;5039737;28;46456;-74
2022/07/23 06:39:21;;;;;;;1.95;1.60;;;23.10;93.00;;;;;;5039257;27;45500;-74
2022/07/23 06:41:48;;;;;;;1.75;1.52;;;23.10;93.00;;;;;;5049500;27;45414;-74
2022/07/23 06:44:14;;;;;;;2.03;1.80;;;23.10;92.90;;;;;;5039977;28;45202;-74
2022/07/23 06:46:41;;;;;;;2.05;1.50;;;23.10;92.80;;;;;;5040646;28;47266;-75
2022/07/23 06:49:09;;;;;;;2.05;1.50;;;23.20;92.80;;;;;;5029017;28;45363;-74
2022/07/23 06:51:36;;;;;;;2.40;1.75;;;23.20;92.80;;;;;;5038322;28;45428;-74
2022/07/23 06:54:03;;;;;;;2.47;1.83;;;23.20;92.80;;;;;;5038916;27;45306;-74
2022/07/23 06:56:30;;;;;;;2.55;1.80;;;23.20;92.70;;;;;;5035731;27;48069;-74
2022/07/23 06:58:57;;;;;;;2.20;1.70;;;23.20;92.70;;;;;;5039350;28;45283;-74
2022/07/23 07:01:24;;;;;;;2.95;2.05;;;23.20;92.80;;;;;;5039282;28;45356;-75
2022/07/23 07:03:51;;;;;;;4.10;2.08;;;23.20;92.80;;;;;;5040752;27;45378;-74
2022/07/23 07:06:19;;;;;;;3.17;2.40;;;23.20;92.70;;;;;;5037517;28;46490;-75
2022/07/23 07:08:46;;;;;;;2.90;1.90;;;23.20;92.60;;;;;;5040715;28;45305;-74
2022/07/23 07:11:12;;;;;;;4.50;2.85;;;23.20;92.60;;;;;;5029681;28;45391;-75
2022/07/23 07:13:39;;;;;;;3.83;2.55;;;23.20;92.50;;;;;;5040226;28;45354;-74
2022/07/23 07:16:07;;;;;;;4.72;2.85;;;23.20;92.80;;;;;;5040499;28;47357;-74
2022/07/23 07:18:33;;;;;;;4.40;2.50;;;23.20;92.40;;;;;;5040023;28;45295;-74
2022/07/23 07:21:00;;;;;;;3.15;2.28;;;23.20;92.40;;;;;;5039987;28;45363;-74
2022/07/23 07:23:28;;;;;;;2.70;2.30;;;23.20;92.40;;;;;;5039228;28;45311;-74
2022/07/23 07:25:55;;;;;;;3.58;2.58;;;23.20;92.40;;;;;;5039725;27;47322;-72
2022/07/23 07:28:22;;;;;;;4.30;2.70;;;23.20;92.30;;;;;;5039891;27;45652;-74
2022/07/23 07:30:49;;;;;;;3.58;2.70;;;23.20;92.30;;;;;;5042598;27;45269;-75
2022/07/23 07:33:15;;;;;;;5.18;2.67;;;23.20;92.40;;;;;;5034451;28;45338;-74
2022/07/23 07:35:42;;;;;;;3.70;2.45;;;23.20;92.40;;;;;;5040571;28;47556;-74
2022/07/23 07:38:09;;;;;;;4.07;2.97;;;23.30;92.30;;;;;;5041767;28;45609;-74
2022/07/23 07:40:37;;;;;;;5.00;2.67;;;23.30;92.40;;;;;;5036894;27;45322;-74
2022/07/23 07:43:05;;;;;;;3.63;3.10;;;23.30;92.30;;;;;;5035517;27;45711;-74
2022/07/23 07:45:32;;;;;;;3.83;2.50;;;23.40;92.40;;;;;;5033686;28;45680;-74
2022/07/23 07:47:59;;;;;;;4.20;2.80;;;23.30;92.40;;;;;;5047483;27;45322;-74
2022/07/23 07:50:26;;;;;;;3.92;2.78;;;23.30;92.40;;;;;;5045433;27;45388;-74
2022/07/23 07:52:53;;;;;;;3.53;2.20;;;23.40;92.40;;;;;;5053498;27;45417;-73
2022/07/23 07:55:20;;;;;;;4.00;2.60;;;23.40;92.30;;;;;;5044082;27;45462;-73
2022/07/23 07:57:48;;;;;;;5.80;3.42;;;23.40;92.40;;;;;;5034737;28;45289;-73
2022/07/23 08:00:15;;;;;;;4.80;3.30;;;23.40;92.30;;;;;;5049562;27;45520;-74
2022/07/23 08:02:43;;;;;;;3.95;2.92;;;23.40;92.30;;;;;;5034083;28;45429;-73
2022/07/23 08:05:11;;;;;;;5.38;3.47;;;23.30;92.20;;;;;;5035308;28;46535;-74
2022/07/23 08:07:39;;;;;;;4.57;3.53;;;23.40;92.10;;;;;;5041417;27;45342;-74
2022/07/23 08:10:07;;;;;;;5.00;3.45;;;23.30;92.00;;;;;;5037510;27;45272;-74
2022/07/23 08:12:45;;;;;;;6.32;3.45;;;23.30;91.90;;;;;;5037771;27;45319;-74
2022/07/23 08:15:14;;;;;;;5.68;3.72;;;23.40;91.90;;;;;;5037113;27;48095;-74
2022/07/23 08:17:41;;;;;;;4.97;3.67;;;23.30;91.70;;;;;;5036795;28;45485;-74
2022/07/23 08:20:10;;;;;;;6.20;3.90;;;23.30;91.80;;;;;;5041029;27;45443;-74
2022/07/23 08:22:45;;;;;;;5.18;3.63;;;23.30;91.70;;;;;;5036849;27;45386;-75
2022/07/23 08:25:13;;;;;;;5.55;3.75;;;23.30;91.70;;;;;;5033806;28;46558;-74
2022/07/23 08:27:40;;;;;;;6.18;3.70;;;23.30;91.50;;;;;;5033645;27;45658;-74
2022/07/23 08:30:08;;;;;;;5.80;3.30;;;23.30;91.50;;;;;;5040168;28;45383;-74
2022/07/23 08:32:49;;;;;;;4.60;3.50;;;23.30;91.40;;;;;;5041018;28;45225;-74
2022/07/23 08:35:15;;;;;;;4.95;3.30;;;23.40;91.40;;;;;;5038905;28;47555;-75
2022/07/23 08:37:42;;;;;;;3.65;2.65;;;23.30;91.50;;;;;;5039718;27;45860;-74
2022/07/23 08:40:10;;;;;;;5.75;3.38;;;23.30;91.40;;;;;;5032631;28;45351;-74
2022/07/23 08:42:37;;;;;;;3.65;2.58;;;23.30;91.60;;;;;;5039140;28;45573;-74
2022/07/23 08:45:05;;;;;;;5.82;2.83;;;23.30;91.70;;;;;;5033702;27;46622;-74
2022/07/23 08:47:32;;;;;;;4.47;2.80;;;23.30;91.70;;;;;;5049232;27;45544;-74
2022/07/23 08:50:00;;;;;;;7.20;2.90;;;23.30;91.60;;;;;;5062781;27;45375;-74
2022/07/23 08:52:28;;;;;;;5.53;3.28;;;23.30;91.70;;;;;;5031073;28;45226;-74
2022/07/23 08:54:55;;;;;;;5.15;2.95;;;23.30;91.70;;;;;;5041716;27;47275;-74
2022/07/23 08:57:22;;;;;;;3.65;2.80;;;23.30;91.50;;;;;;5033572;28;45732;-74
2022/07/23 08:59:49;;;;;;;2.95;2.53;;;23.30;91.40;;;;;;5037758;27;45462;-73
2022/07/23 09:02:16;;;;;;;4.18;3.05;;;23.30;91.40;;;;;;5029802;28;45530;-74
2022/07/23 09:04:42;;;;;;;4.13;2.65;;;23.30;91.30;;;;;;5021592;28;46289;-74
2022/07/23 09:07:11;;;;;;;4.10;2.90;;;23.30;91.20;;;;;;5032829;28;45399;-74
2022/07/23 09:09:37;;;;;;;4.25;3.05;;;23.30;91.10;;;;;;5042033;27;45403;-73
2022/07/23 09:12:06;;;;;;;4.05;3.10;;;23.30;91.30;;;;;;5035638;27;45279;-74
2022/07/23 09:14:41;;;;;;;3.75;2.67;;;23.30;91.30;;;;;;5041026;27;46733;-73
2022/07/23 09:17:12;;;;;;;3.65;2.60;;;23.30;91.10;;;;;;5041486;27;45230;-74
2022/07/23 09:19:40;;;;;;;3.92;2.90;;;23.30;91.10;;;;;;5041014;27;45372;-74
2022/07/23 09:22:23;;;;;;;3.30;2.63;;;23.30;90.90;;;;;;5041953;28;45190;-74
2022/07/23 09:25:10;;;;;;;3.63;2.50;;;23.30;90.90;;;;;;5041092;27;45283;-74
2022/07/23 09:27:52;;;;;;;4.03;2.50;;;23.30;90.80;;;;;;5039309;28;45366;-75
2022/07/23 09:30:20;;;;;;;5.00;2.80;;;23.30;90.80;;;;;;5021626;28;45693;-74
2022/07/23 09:33:05;;;;;;;3.15;2.25;;;23.30;90.70;;;;;;5040318;28;45445;-75
2022/07/23 09:35:49;;;;;;;3.42;2.72;;;23.30;90.70;;;;;;5022840;28;47293;-75
2022/07/23 09:38:46;;;;;;;11.75;3.00;;;23.30;90.80;;;;;;5086625;27;45174;-75
2022/07/23 09:41:13;;;;;;;37.63;6.25;;;23.40;91.50;;;;;;5026708;28;45529;-75
2022/07/23 09:43:44;;;;;;;17.85;4.47;;;23.40;92.10;;;;;;5044364;28;45183;-76
2022/07/23 09:46:23;;;;;;;13.27;3.60;;;23.40;91.80;;;;;;5043908;28;45225;-76
2022/07/23 09:48:51;;;;;;;11.98;3.45;;;23.30;91.30;;;;;;5044394;28;45445;-76
2022/07/23 09:51:20;;;;;;;11.02;3.08;;;23.30;91.00;;;;;;5044401;28;45308;-76
2022/07/23 09:53:48;;;;;;;9.27;2.70;;;23.30;90.90;;;;;;5042811;28;45549;-76
2022/07/23 09:56:16;;;;;;;7.93;2.83;;;23.30;90.70;;;;;;5043945;28;47400;-76
2022/07/23 09:58:48;;;;;;;7.32;2.60;;;23.30;90.40;;;;;;5045329;28;45180;-75
2022/07/23 10:01:15;;;;;;;4.10;2.25;;;23.30;90.30;;;;;;5045521;28;45336;-76
2022/07/23 10:03:42;;;;;;;5.18;2.50;;;23.30;90.60;;;;;;5044164;28;45356;-76
2022/07/23 10:06:10;;;;;;;5.28;2.53;;;23.30;90.00;;;;;;5043825;28;47297;-76
2022/07/23 10:08:42;;;;;;;3.10;2.20;;;23.30;89.60;;;;;;5043928;28;45077;-77
2022/07/23 10:11:17;;;;;;;5.32;2.22;;;23.30;89.60;;;;;;5043382;28;45192;-76
2022/07/23 10:13:52;;;;;;;3.75;2.22;;;23.30;89.10;;;;;;5044072;28;45485;-75
2022/07/23 10:16:19;;;;;;;2.63;2.10;;;23.40;89.00;;;;;;5034515;28;47064;-75
2022/07/23 10:18:47;;;;;;;4.13;2.20;;;23.40;88.80;;;;;;5042985;28;45248;-75
2022/07/23 10:21:21;;;;;;;4.90;2.10;;;23.40;88.70;;;;;;5043126;28;45138;-75
2022/07/23 10:24:00;;;;;;;2.88;2.05;;;23.40;88.70;;;;;;5041694;28;45323;-75
2022/07/23 10:26:37;;;;;;;3.13;2.08;;;23.40;88.60;;;;;;5043244;28;47033;-75
2022/07/23 10:29:18;;;;;;;4.10;1.98;;;23.40;88.50;;;;;;5043139;28;45297;-75
2022/07/23 10:31:56;;;;;;;3.88;1.98;;;23.40;88.40;;;;;;5043261;28;45251;-75
2022/07/23 10:34:31;;;;;;;4.40;1.88;;;23.40;88.20;;;;;;5042810;27;45450;-76
2022/07/23 10:37:07;;;;;;;4.78;2.30;;;23.40;88.00;;;;;;5043268;28;47058;-75
2022/07/23 10:39:36;;;;;;;2.88;2.03;;;23.40;88.00;;;;;;5043425;28;45432;-75
2022/07/23 10:42:13;;;;;;;2.92;1.83;;;23.40;88.00;;;;;;5043145;28;45211;-75
2022/07/23 10:44:42;;;;;;;3.38;1.80;;;23.40;87.80;;;;;;5042933;28;45170;-77
2022/07/23 10:47:22;;;;;;;4.30;1.88;;;23.40;87.80;;;;;;5041056;28;45459;-76
2022/07/23 10:49:49;;;;;;;3.60;1.85;;;23.40;87.40;;;;;;5040873;28;45210;-73
2022/07/23 10:52:21;;;;;;;4.75;1.73;;;23.40;87.20;;;;;;5044322;28;45203;-76
2022/07/23 10:55:16;;;;;;;5.15;2.10;;;23.40;87.00;;;;;;5042710;28;45564;-81
2022/07/23 11:01:55;;;;;;;;;;;;;;;;;;;;;
2022/07/23 11:08:16;;;;;;;5.50;1.50;;;23.60;86.70;;;;;;5013615;28;45215;-76
2022/07/23 11:10:46;;;;;;;3.30;1.50;;;23.50;86.30;;;;;;5042957;28;48836;-77
2022/07/23 11:13:42;;;;;;;2.45;1.50;;;23.50;86.00;;;;;;5042309;27;45423;-76
2022/07/23 11:16:17;;;;;;;3.15;1.48;;;23.50;85.60;;;;;;5042869;28;45267;-76
2022/07/23 11:19:06;;;;;;;3.80;1.30;;;23.50;85.40;;;;;;5043111;28;45189;-76
2022/07/23 11:21:50;;;;;;;4.80;1.50;;;23.50;85.20;;;;;;5042592;28;47061;-76
2022/07/23 11:24:19;;;;;;;2.92;1.10;;;23.50;85.00;;;;;;5042726;28;45201;-76
2022/07/23 11:26:57;;;;;;;2.88;1.70;;;23.50;84.70;;;;;;5042935;28;45216;-76
2022/07/23 11:29:46;;;;;;;3.00;1.30;;;23.50;84.50;;;;;;5042632;28;45215;-76
2022/07/23 11:32:41;;;;;;;2.03;1.20;;;23.50;84.20;;;;;;5042471;28;47041;-76
2022/07/23 11:35:26;;;;;;;3.10;1.33;;;23.50;84.20;;;;;;5042300;28;45195;-76
2022/07/23 11:37:58;;;;;;;2.97;1.42;;;23.50;84.20;;;;;;5042391;27;45121;-76
2022/07/23 11:40:25;;;;;;;2.20;1.23;;;23.50;84.20;;;;;;5042531;27;45368;-76
2022/07/23 11:42:54;;;;;;;1.77;1.13;;;23.50;84.30;;;;;;5044729;27;47970;-76
2022/07/23 11:45:22;;;;;;;2.15;1.23;;;23.40;83.70;;;;;;5043120;27;45337;-76
2022/07/23 11:47:49;;;;;;;2.83;1.35;;;23.50;83.80;;;;;;5042082;27;45277;-75
2022/07/23 11:50:16;;;;;;;1.42;1.17;;;23.50;83.50;;;;;;5042330;27;45502;-76
2022/07/23 11:52:44;;;;;;;4.38;1.50;;;23.50;83.10;;;;;;5084215;27;47022;-76
2022/07/23 11:55:15;;;;;;;2.17;1.25;;;23.50;82.90;;;;;;5041960;27;45213;-76
2022/07/23 11:57:42;;;;;;;2.55;1.30;;;23.50;82.90;;;;;;5042167;28;45288;-76
2022/07/23 12:00:12;;;;;;;2.53;1.38;;;23.50;82.60;;;;;;5041237;27;45337;-76
2022/07/23 12:02:40;;;;;;;1.02;0.90;;;23.50;82.50;;;;;;5021574;28;46647;-75
2022/07/23 12:05:09;;;;;;;2.63;1.27;;;23.50;82.20;;;;;;5038429;28;46385;-75
2022/07/23 12:07:37;;;;;;;2.10;1.20;;;23.50;81.70;;;;;;5041948;28;45407;-75
2022/07/23 12:10:11;;;;;;;1.67;1.20;;;23.50;81.30;;;;;;5041741;28;45222;-76
2022/07/23 12:12:39;;;;;;;2.30;1.20;;;23.60;81.40;;;;;;5041279;28;46444;-76
2022/07/23 12:15:08;;;;;;;3.17;1.10;;;23.50;82.00;;;;;;5033311;28;45414;-76
2022/07/23 12:17:36;;;;;;;1.20;1.10;;;23.60;81.40;;;;;;5043168;27;45314;-75
2022/07/23 12:20:06;;;;;;;1.80;1.10;;;23.50;81.30;;;;;;5043188;28;45253;-76
2022/07/23 12:22:39;;;;;;;1.20;1.10;;;23.50;82.30;;;;;;5028398;28;47033;-76
2022/07/23 12:25:11;;;;;;;2.72;1.13;;;23.50;81.30;;;;;;5044283;27;45285;-75
2022/07/23 12:27:38;;;;;;;1.75;1.20;;;23.50;81.30;;;;;;5043594;28;45364;-75
2022/07/23 12:30:23;;;;;;;3.97;1.40;;;23.50;81.30;;;;;;5044116;28;45569;-75
2022/07/23 12:32:51;;;;;;;3.40;1.35;;;23.60;82.00;;;;;;5031777;27;48010;-75
2022/07/23 12:35:19;;;;;;;4.28;1.77;;;23.60;81.90;;;;;;5059419;27;45432;-74
2022/07/23 12:37:47;;;;;;;2.28;1.40;;;23.60;81.50;;;;;;5045593;27;45311;-75
2022/07/23 12:40:27;;;;;;;2.65;1.30;;;23.60;81.40;;;;;;5029423;28;45232;-75
2022/07/23 12:42:57;;;;;;;2.50;1.23;;;23.60;81.40;;;;;;5042799;28;48277;-75
2022/07/23 12:45:25;;;;;;;1.20;1.10;;;23.60;81.10;;;;;;5041193;28;45349;-75
2022/07/23 12:47:58;;;;;;;2.25;1.02;;;23.50;81.30;;;;;;5042847;28;45335;-75
2022/07/23 12:50:53;;;;;;;1.50;1.20;;;23.50;81.30;;;;;;5036727;28;45529;-76
2022/07/23 12:53:23;;;;;;;2.08;1.30;;;23.50;80.60;;;;;;5039410;28;46962;-75
2022/07/23 12:55:58;;;;;;;1.77;0.93;;;23.50;80.50;;;;;;5041910;27;45326;-75
2022/07/23 12:58:25;;;;;;;2.10;1.55;;;23.50;80.50;;;;;;5040755;27;45218;-75
2022/07/23 13:01:05;;;;;;;1.30;1.00;;;23.50;81.10;;;;;;5042100;28;45222;-75
2022/07/23 13:03:38;;;;;;;1.98;1.00;;;23.50;81.20;;;;;;5036448;27;48089;-75
2022/07/23 13:06:08;;;;;;;2.63;0.95;;;23.50;80.70;;;;;;5042278;28;45452;-75